Turpan, China
Current Conditions -  °F | °C
As of 2:00 PM on Sunday 26 Oct 2014 (Local Time) from ZWWW Reporting Station
Smoke Smoke  
Wind Chill: 61°   Ceiling: Unl
Heat Index: 61°   Visibility: 1.8mi
Dew Point: 45°   Wind: 4mph
Humidity: 55%   Direction: 20°NNE
Pressure: 29.94"   Gusts: NA
Location:  42.93°N, 89.2°E
Report Text: ZWWW 260600Z 02002MPS 310V080 3000 FU NSC 16/07 Q1014 NOSIG
Loading
Personal Weather Stations






























Interactive Weather Map
Tropical Storm Tracking
New forecast layout! Learn more

10-Day Weather Forecast

Advertisements
Track Severe Weather on mobile